
Distance (Route):
Temperature : -4.4°C
Humidity : 81.9%
Pressure : 552.0hPa| Receiver | Frames | First received | Last received |
|---|---|---|---|
| AUTORXJP | 44 | 2026-09-01 13:19:49 | 2026-09-01 14:32:19 |
| Receiver | Date | Latitude | Longitude | Direction | Speed | Altitude | Climb | Temperature | Humidity | Pressure | Voltage | Killtimer | Uptime | BKT | XDATA |
|---|---|---|---|---|---|---|---|---|---|---|---|---|---|---|---|
| AUTORXJP | 2026-09-01 14:32:19 | 39.96422 | 3.98489 | 59° | 44km/h | 5202m | -2.4m/s | -4.4°C | 81.9% | 552.0hPa | 0V | 00:00:00 | 00:00:00 | 00:00:00 | |
| AUTORXJP | 2026-09-01 14:31:48 | 39.96394 | 3.98427 | 60° | 42km/h | 5213m | -2.5m/s | -4.5°C | 81.9% | 551.1hPa | 0V | 00:00:00 | 00:00:00 | 00:00:00 | |
| AUTORXJP | 2026-09-01 14:31:17 | 39.96249 | 3.98025 | 66° | 42km/h | 5289m | -2.5m/s | -5.0°C | 82.4% | 545.9hPa | 0V | 00:00:00 | 00:00:00 | 00:00:00 | |
| AUTORXJP | 2026-09-01 14:30:46 | 39.96134 | 3.97582 | 74° | 51km/h | 5366m | -2.4m/s | -5.7°C | 80.7% | 540.6hPa | 0V | 00:00:00 | 00:00:00 | 00:00:00 | |
| AUTORXJP | 2026-09-01 14:30:15 | 39.95989 | 3.97037 | 66° | 57km/h | 5443m | -2.4m/s | -6.5°C | 84.7% | 535.3hPa | 0V | 00:00:00 | 00:00:00 | 00:00:00 | |
| AUTORXJP | 2026-09-01 14:29:43 | 39.95813 | 3.96570 | 68° | 46km/h | 5517m | -2.5m/s | -6.7°C | 76.8% | 530.4hPa | 0V | 00:00:00 | 00:00:00 | 00:00:00 | |
| AUTORXJP | 2026-09-01 14:29:12 | 39.95705 | 3.96102 | 75° | 53km/h | 5595m | -2.4m/s | -7.1°C | 73.8% | 525.0hPa | 0V | 00:00:00 | 00:00:00 | 00:00:00 | |
| AUTORXJP | 2026-09-01 14:28:41 | 39.95416 | 3.95090 | 64° | 58km/h | 5736m | -2.2m/s | -8.5°C | 80.6% | 515.6hPa | 0V | 00:00:00 | 00:00:00 | 00:00:00 | |
| AUTORXJP | 2026-09-01 14:28:10 | 39.95377 | 3.94983 | 64° | 58km/h | 5750m | -2.3m/s | -8.6°C | 81.2% | 514.7hPa | 0V | 00:00:00 | 00:00:00 | 00:00:00 | |
| AUTORXJP | 2026-09-01 14:27:39 | 39.95157 | 3.94493 | 57° | 47km/h | 5824m | -2.3m/s | -9.0°C | 78.9% | 509.9hPa | 0V | 00:00:00 | 00:00:00 | 00:00:00 | |
| AUTORXJP | 2026-09-01 14:27:08 | 39.95000 | 3.94058 | 69° | 47km/h | 5895m | -2.2m/s | -9.6°C | 78.2% | 505.1hPa | 0V | 00:00:00 | 00:00:00 | 00:00:00 | |
| AUTORXJP | 2026-09-01 14:26:37 | 39.94863 | 3.93540 | 68° | 58km/h | 5963m | -2.1m/s | -10.1°C | 79.6% | 500.7hPa | 0V | 00:00:00 | 00:00:00 | 00:00:00 | |
| AUTORXJP | 2026-09-01 14:26:06 | 39.94651 | 3.93010 | 58° | 51km/h | 6031m | -2.1m/s | -10.5°C | 73.9% | 496.3hPa | 0V | 00:00:00 | 00:00:00 | 00:00:00 | |
| AUTORXJP | 2026-09-01 14:25:35 | 39.94468 | 3.92590 | 66° | 42km/h | 6096m | -2.2m/s | -10.8°C | 74.5% | 492.1hPa | 0V | 00:00:00 | 00:00:00 | 00:00:00 | |
| AUTORXJP | 2026-09-01 14:25:04 | 39.94334 | 3.92116 | 65° | 55km/h | 6163m | -2.3m/s | -11.3°C | 75.1% | 487.9hPa | 0V | 00:00:00 | 00:00:00 | 00:00:00 | |
| AUTORXJP | 2026-09-01 14:24:33 | 39.94127 | 3.91616 | 55° | 53km/h | 6234m | -2.4m/s | -11.8°C | 72.8% | 483.4hPa | 0V | 00:00:00 | 00:00:00 | 00:00:00 | |
| AUTORXJP | 2026-09-01 14:24:02 | 39.93887 | 3.91215 | 50° | 44km/h | 6308m | -2.5m/s | -12.0°C | 68.0% | 478.7hPa | 0V | 00:00:00 | 00:00:00 | 00:00:00 | |
| AUTORXJP | 2026-09-01 14:22:59 | 39.93484 | 3.90406 | 62° | 37km/h | 6498m | -2.8m/s | -13.4°C | 69.2% | 466.9hPa | 0V | 00:00:00 | 00:00:00 | 00:00:00 | |
| AUTORXJP | 2026-09-01 14:22:28 | 39.93421 | 3.90212 | 72° | 38km/h | 6543m | -2.7m/s | -13.9°C | 71.6% | 464.1hPa | 0V | 00:00:00 | 00:00:00 | 00:00:00 | |
| AUTORXJP | 2026-09-01 14:21:57 | 39.93325 | 3.89778 | 71° | 51km/h | 6629m | -2.6m/s | -14.6°C | 72.5% | 458.8hPa | 0V | 00:00:00 | 00:00:00 | 00:00:00 | |
| AUTORXJP | 2026-09-01 14:21:26 | 39.93149 | 3.89297 | 58° | 47km/h | 6718m | -2.9m/s | 0°C | -1.0% | 453.4hPa | 0V | 00:00:00 | 00:00:00 | 00:00:00 | |
| AUTORXJP | 2026-09-01 13:54:00 | 39.88321 | 3.55149 | 61° | 62km/h | 11619m | -3.6m/s | -52.1°C | 31.8% | 225.3hPa | 0V | 00:00:00 | 00:00:00 | 00:00:00 | |
| AUTORXJP | 2026-09-01 13:53:28 | 39.88173 | 3.54662 | 72° | 71km/h | 11704m | -3.5m/s | -52.6°C | 31.3% | 222.4hPa | 0V | 00:00:00 | 00:00:00 | 00:00:00 | |
| AUTORXJP | 2026-09-01 13:52:57 | 39.87939 | 3.53920 | 63° | 75km/h | 11813m | -3.4m/s | -53.3°C | 27.3% | 218.7hPa | 0V | 00:00:00 | 00:00:00 | 00:00:00 | |
| AUTORXJP | 2026-09-01 13:52:26 | 39.87750 | 3.53246 | 80° | 71km/h | 11920m | -3.5m/s | -53.8°C | 23.9% | 215.1hPa | 0V | 00:00:00 | 00:00:00 | 00:00:00 | |
| AUTORXJP | 2026-09-01 13:51:55 | 39.87589 | 3.52449 | 69° | 82km/h | 12028m | -3.7m/s | -54.1°C | 20.8% | 211.5hPa | 0V | 00:00:00 | 00:00:00 | 00:00:00 | |
| AUTORXJP | 2026-09-01 13:51:24 | 39.87396 | 3.51767 | 78° | 68km/h | 12137m | -3.6m/s | 0°C | -1.0% | 207.9hPa | 0V | 00:00:00 | 00:00:00 | 00:00:00 | |
| AUTORXJP | 2026-09-01 13:50:53 | 39.87249 | 3.50948 | 72° | 86km/h | 12255m | -3.8m/s | 0°C | -1.0% | 204.1hPa | 0V | 00:00:00 | 00:00:00 | 00:00:00 | |
| AUTORXJP | 2026-09-01 13:50:22 | 39.87001 | 3.50216 | 64° | 73km/h | 12369m | -3.6m/s | 0°C | -1.0% | -1.0hPa | 0V | 00:00:00 | 00:00:00 | 00:00:00 | |
| AUTORXJP | 2026-09-01 13:38:59 | 39.82199 | 3.32432 | 93° | 80km/h | 15354m | -4.9m/s | 0°C | -1.0% | -1.0hPa | 0V | 00:00:00 | 00:00:00 | 00:00:00 | |
| AUTORXJP | 2026-09-01 13:38:27 | 39.82202 | 3.32086 | 88° | 89km/h | 15413m | -4.8m/s | 0°C | -1.0% | -1.0hPa | 0V | 00:00:00 | 00:00:00 | 00:00:00 | |
| AUTORXJP | 2026-09-01 13:37:56 | 39.82118 | 3.31319 | 78° | 75km/h | 15541m | -4.7m/s | 0°C | -1.0% | -1.0hPa | 0V | 00:00:00 | 00:00:00 | 00:00:00 | |
| AUTORXJP | 2026-09-01 13:30:10 | 39.81132 | 3.25395 | 100° | 29km/h | 18015m | -5.5m/s | -60.8°C | 2.0% | 81.1hPa | 0V | 00:00:00 | 00:00:00 | 00:00:00 | |
| AUTORXJP | 2026-09-01 13:29:39 | 39.81149 | 3.25270 | 97° | 20km/h | 18094m | -5.6m/s | -60.8°C | 1.9% | 80.1hPa | 0V | 00:00:00 | 00:00:00 | 00:00:00 | |
| AUTORXJP | 2026-09-01 13:29:08 | 39.81113 | 3.25051 | 48° | 33km/h | 18264m | -6.0m/s | -59.7°C | 1.8% | 77.9hPa | 0V | 00:00:00 | 00:00:00 | 00:00:00 | |
| AUTORXJP | 2026-09-01 13:28:37 | 39.80878 | 3.24905 | 8° | 22km/h | 18456m | -5.9m/s | -60.1°C | 1.7% | 75.5hPa | 0V | 00:00:00 | 00:00:00 | 00:00:00 | |
| AUTORXJP | 2026-09-01 13:27:04 | 39.80844 | 3.24309 | 113° | 24km/h | 19109m | -6.3m/s | -57.6°C | 1.5% | 68.0hPa | 0V | 00:00:00 | 00:00:00 | 00:00:00 | |
| AUTORXJP | 2026-09-01 13:25:31 | 39.80930 | 3.24167 | 80° | 20km/h | 19808m | -6.7m/s | -58.0°C | 1.4% | 60.9hPa | 0V | 00:00:00 | 00:00:00 | 00:00:00 | |
| AUTORXJP | 2026-09-01 13:22:56 | 39.80908 | 3.23850 | 0° | 22km/h | 20822m | -7.1m/s | -57.2°C | 1.4% | 51.8hPa | 0V | 00:00:00 | 00:00:00 | 00:00:00 | |
| AUTORXJP | 2026-09-01 13:21:53 | 39.80920 | 3.23923 | 84° | 26km/h | 21207m | -7.8m/s | -55.7°C | 1.2% | 48.8hPa | 0V | 00:00:00 | 00:00:00 | 00:00:00 | |
| AUTORXJP | 2026-09-01 13:21:22 | 39.80831 | 3.23831 | 348° | 16km/h | 21434m | -8.0m/s | -55.6°C | 1.3% | 47.1hPa | 0V | 00:00:00 | 00:00:00 | 00:00:00 | |
| AUTORXJP | 2026-09-01 13:20:51 | 39.80609 | 3.23984 | 317° | 49km/h | 21680m | -8.0m/s | -56.1°C | 1.3% | 45.2hPa | 0V | 00:00:00 | 00:00:00 | 00:00:00 | |
| AUTORXJP | 2026-09-01 13:20:20 | 39.80493 | 3.24223 | 278° | 5km/h | 21929m | -8.0m/s | -56.0°C | 1.3% | 43.5hPa | 0V | 00:00:00 | 00:00:00 | 00:00:00 | |
| AUTORXJP | 2026-09-01 13:19:49 | 39.80390 | 3.24163 | 344° | 29km/h | 22177m | -8.4m/s | -54.9°C | 1.2% | -1.0hPa | 0V | 00:00:00 | 00:00:00 | 00:00:00 |